createdAt,value
2023-01-11T00:01:29.092Z,15.60
2023-01-11T00:04:01.991Z,16.00
2023-01-11T00:06:34.908Z,16.07
2023-01-11T00:09:07.735Z,15.70
2023-01-11T00:11:40.744Z,15.40
2023-01-11T00:14:13.751Z,15.00
2023-01-11T00:16:46.698Z,14.50
2023-01-11T00:19:19.718Z,16.00
2023-01-11T00:21:54.210Z,15.43
2023-01-11T00:24:27.224Z,15.03
2023-01-11T00:27:00.400Z,15.73
2023-01-11T00:29:33.417Z,15.20
2023-01-11T00:32:06.154Z,15.47
2023-01-11T00:34:39.173Z,16.27
2023-01-11T00:37:12.519Z,15.70
2023-01-11T00:39:45.480Z,15.20
2023-01-11T00:42:35.399Z,15.27
2023-01-11T00:45:26.132Z,16.10
2023-01-11T00:48:06.558Z,15.80
2023-01-11T00:50:41.367Z,15.80
2023-01-11T00:53:15.834Z,16.30
2023-01-11T00:55:49.032Z,16.80
2023-01-11T00:58:22.252Z,15.60
2023-01-11T01:00:55.228Z,16.60
2023-01-11T01:03:28.210Z,16.17
2023-01-11T01:06:01.301Z,16.77
2023-01-11T01:08:34.534Z,16.27
2023-01-11T01:11:07.618Z,15.83
2023-01-11T01:13:57.737Z,16.70
2023-01-11T01:16:30.727Z,16.67
2023-01-11T01:19:03.629Z,17.37
2023-01-11T01:21:37.294Z,17.67
2023-01-11T01:24:10.684Z,16.80
2023-01-11T01:26:43.709Z,17.80
2023-01-11T01:29:17.749Z,16.70
2023-01-11T01:31:50.721Z,17.10
2023-01-11T01:34:23.755Z,16.80
2023-01-11T01:36:56.675Z,16.10
2023-01-11T01:39:29.908Z,15.90
2023-01-11T01:42:03.175Z,16.40
2023-01-11T01:45:05.144Z,15.63
2023-01-11T01:47:45.979Z,16.70
2023-01-11T01:50:29.755Z,16.50
2023-01-11T01:53:10.337Z,17.07
2023-01-11T01:55:45.477Z,17.33
2023-01-11T01:58:20.392Z,18.17
2023-01-11T02:00:53.604Z,18.80
2023-01-11T02:03:30.493Z,18.60
2023-01-11T02:06:03.381Z,17.63
2023-01-11T02:08:38.479Z,17.20
2023-01-11T02:11:14.550Z,16.80
2023-01-11T02:13:47.894Z,16.50
2023-01-11T02:16:20.952Z,16.80
2023-01-11T02:18:54.188Z,16.80
2023-01-11T02:21:28.952Z,16.97
2023-01-11T02:24:25.426Z,17.50
2023-01-11T02:27:31.265Z,17.43
2023-01-11T02:30:06.489Z,17.40
2023-01-11T02:32:47.773Z,17.80
2023-01-11T02:35:41.969Z,18.20
2023-01-11T02:38:31.842Z,18.20
2023-01-11T02:41:22.356Z,17.93
2023-01-11T02:44:19.880Z,18.60
2023-01-11T02:47:09.225Z,18.50
2023-01-11T02:49:53.407Z,18.60
2023-01-11T02:52:37.203Z,18.30
2023-01-11T02:55:11.995Z,18.50
2023-01-11T02:57:47.113Z,18.70
2023-01-11T03:00:22.001Z,18.10
2023-01-11T03:03:11.749Z,18.37
2023-01-11T03:05:49.471Z,17.23
2023-01-11T03:08:27.635Z,17.20
2023-01-11T03:11:11.941Z,17.20
2023-01-11T03:13:55.356Z,17.10
2023-01-11T03:16:38.925Z,17.00
2023-01-11T03:19:28.891Z,17.30
2023-01-11T03:22:24.616Z,18.50
2023-01-11T03:25:07.503Z,18.60
2023-01-11T03:27:42.858Z,19.73
2023-01-11T03:30:20.739Z,19.80
2023-01-11T03:32:58.750Z,19.50
2023-01-11T03:35:45.761Z,18.90
2023-01-11T03:38:35.714Z,18.73
2023-01-11T03:41:13.198Z,18.90
2023-01-11T03:43:48.113Z,18.07
2023-01-11T03:46:29.599Z,17.83
2023-01-11T03:49:07.660Z,17.30
2023-01-11T03:51:42.673Z,17.60
2023-01-11T03:54:17.504Z,17.83
2023-01-11T03:57:11.751Z,17.80
2023-01-11T03:59:44.883Z,18.47
2023-01-11T04:02:23.387Z,18.00
2023-01-11T04:04:56.835Z,18.27
2023-01-11T04:07:29.846Z,18.60
2023-01-11T04:10:02.796Z,18.80
2023-01-11T04:12:35.745Z,18.40
2023-01-11T04:15:09.242Z,17.03
2023-01-11T04:17:42.462Z,17.00
2023-01-11T04:20:16.562Z,16.83
2023-01-11T04:22:49.629Z,16.60
2023-01-11T04:25:23.005Z,16.73
2023-01-11T04:27:56.200Z,16.40
2023-01-11T04:30:29.543Z,16.40
2023-01-11T04:33:05.660Z,16.60
2023-01-11T04:35:38.658Z,16.23
2023-01-11T04:38:11.668Z,16.57
2023-01-11T04:40:44.667Z,16.60
2023-01-11T04:43:17.614Z,16.60
2023-01-11T04:45:50.649Z,16.70
2023-01-11T04:48:23.593Z,16.87
2023-01-11T04:50:56.625Z,17.13
2023-01-11T04:53:29.561Z,15.80
2023-01-11T04:56:06.114Z,15.87
2023-01-11T04:58:39.692Z,15.80
2023-01-11T05:01:22.932Z,16.00
2023-01-11T05:04:07.152Z,15.70
2023-01-11T05:06:40.170Z,15.70
2023-01-11T05:09:14.770Z,15.80
2023-01-11T05:11:48.297Z,16.20
2023-01-11T05:14:21.482Z,16.60
2023-01-11T05:16:54.421Z,16.40
2023-01-11T05:19:27.424Z,16.00
2023-01-11T05:22:00.382Z,16.60
2023-01-11T05:24:33.417Z,16.23
2023-01-11T05:27:07.885Z,15.90
2023-01-11T05:29:41.139Z,17.00
2023-01-11T05:32:14.801Z,16.47
2023-01-11T05:34:47.842Z,15.70
2023-01-11T05:37:21.071Z,15.80
2023-01-11T05:39:54.746Z,15.30
2023-01-11T05:42:27.855Z,14.90
2023-01-11T05:45:18.055Z,15.40
2023-01-11T05:47:51.028Z,15.93
2023-01-11T05:50:24.084Z,15.80
2023-01-11T05:52:57.154Z,16.33
2023-01-11T05:55:30.030Z,16.23
2023-01-11T05:58:02.991Z,16.47
2023-01-11T06:00:36.010Z,15.90
2023-01-11T06:03:09.035Z,14.80
2023-01-11T06:05:41.931Z,14.77
2023-01-11T06:08:21.257Z,14.33
2023-01-11T06:10:57.753Z,15.13
2023-01-11T06:13:30.736Z,14.50
2023-01-11T06:16:05.508Z,14.67
2023-01-11T06:18:39.720Z,15.47
2023-01-11T06:21:13.801Z,14.47
2023-01-11T06:23:48.395Z,14.63
2023-01-11T06:26:22.842Z,14.40
2023-01-11T06:28:56.389Z,14.80
2023-01-11T06:31:29.215Z,14.10
2023-01-11T06:34:02.484Z,14.10
2023-01-11T06:36:35.662Z,14.07
2023-01-11T06:39:09.179Z,14.00
2023-01-11T06:41:42.721Z,14.30
2023-01-11T06:44:16.907Z,14.10
2023-01-11T06:46:50.475Z,14.10
2023-01-11T06:49:23.762Z,13.80
2023-01-11T06:51:57.330Z,14.53
2023-01-11T06:54:35.849Z,14.60
2023-01-11T06:57:12.934Z,14.50
2023-01-11T06:59:48.212Z,14.53
2023-01-11T07:02:21.206Z,14.20
2023-01-11T07:04:54.606Z,14.40
2023-01-11T07:07:27.837Z,14.53
2023-01-11T07:10:00.782Z,14.80
2023-01-11T07:12:33.823Z,15.00
2023-01-11T07:15:07.814Z,15.20
2023-01-11T07:17:41.082Z,14.30
2023-01-11T07:20:15.310Z,14.83
2023-01-11T07:22:48.253Z,14.10
2023-01-11T07:25:21.380Z,14.30
2023-01-11T07:27:56.181Z,14.90
2023-01-11T07:30:30.385Z,14.30
2023-01-11T07:33:05.609Z,14.10
2023-01-11T07:35:38.553Z,13.80
2023-01-11T07:38:13.020Z,14.00
2023-01-11T07:40:46.051Z,14.20
2023-01-11T07:43:21.570Z,13.50
2023-01-11T07:45:55.947Z,12.63
2023-01-11T07:48:29.792Z,13.37
2023-01-11T07:51:02.826Z,13.40
2023-01-11T07:53:35.915Z,12.90
2023-01-11T07:56:09.370Z,13.20
2023-01-11T07:58:42.293Z,12.67
2023-01-11T08:01:15.292Z,12.97
2023-01-11T08:03:48.575Z,13.00
2023-01-11T08:06:21.651Z,12.30
2023-01-11T08:08:54.620Z,11.80
2023-01-11T08:11:44.674Z,11.90
2023-01-11T08:14:35.580Z,12.17
2023-01-11T08:17:08.521Z,11.77
2023-01-11T08:19:41.767Z,11.80
2023-01-11T08:22:14.915Z,11.70
2023-01-11T08:24:48.065Z,12.10
2023-01-11T08:27:21.112Z,11.50
2023-01-11T08:29:54.545Z,11.50
2023-01-11T08:32:29.308Z,12.07
2023-01-11T08:35:02.790Z,11.30
2023-01-11T08:37:40.752Z,11.90
2023-01-11T08:40:14.969Z,12.23
2023-01-11T08:42:48.196Z,11.60
2023-01-11T08:45:21.115Z,11.87
2023-01-11T08:47:54.438Z,11.73
2023-01-11T08:50:27.613Z,11.60
2023-01-11T08:53:00.763Z,11.60
2023-01-11T08:55:33.691Z,12.00
2023-01-11T08:58:06.778Z,12.00
2023-01-11T09:00:39.864Z,11.60
2023-01-11T09:03:14.893Z,12.03
2023-01-11T09:05:48.694Z,12.10
2023-01-11T09:08:21.826Z,12.30
2023-01-11T09:10:54.893Z,12.93
2023-01-11T09:13:27.977Z,13.17
2023-01-11T09:16:01.533Z,13.10
2023-01-11T09:18:34.571Z,13.27
2023-01-11T09:21:07.815Z,12.60
2023-01-11T09:23:40.740Z,12.77
2023-01-11T09:26:13.686Z,13.00
2023-01-11T09:28:48.888Z,13.10
2023-01-11T09:31:27.810Z,13.33
2023-01-11T09:34:01.750Z,12.50
2023-01-11T09:36:37.270Z,12.80
2023-01-11T09:39:12.414Z,13.10
2023-01-11T09:42:17.104Z,12.80
2023-01-11T09:45:20.680Z,12.77
2023-01-11T09:48:17.289Z,12.23
2023-01-11T09:50:51.388Z,12.00
2023-01-11T09:53:34.020Z,12.30
2023-01-11T09:56:09.816Z,12.10
2023-01-11T09:59:01.233Z,11.77
2023-01-11T10:01:48.228Z,11.40
2023-01-11T10:04:43.499Z,12.20
2023-01-11T10:07:40.535Z,12.40
2023-01-11T10:18:26.625Z,12.27
2023-01-11T10:21:18.118Z,12.10
2023-01-11T10:24:05.157Z,12.10
2023-01-11T10:26:40.950Z,12.10
2023-01-11T10:29:23.177Z,12.23
2023-01-11T10:32:10.709Z,11.80
2023-01-11T10:35:04.376Z,12.40
2023-01-11T10:37:58.772Z,12.00
2023-01-11T10:40:34.975Z,11.60
2023-01-11T10:43:23.196Z,11.00
2023-01-11T10:45:58.221Z,10.80
2023-01-11T10:48:45.050Z,11.00
2023-01-11T10:51:32.073Z,11.10
2023-01-11T10:54:19.848Z,11.20
2023-01-11T10:57:27.732Z,10.87
2023-01-11T11:00:20.351Z,10.23
2023-01-11T11:03:03.842Z,10.60
2023-01-11T11:05:56.649Z,11.20
2023-01-11T11:08:50.765Z,10.90
2023-01-11T11:11:34.506Z,11.00
2023-01-11T11:14:09.677Z,10.60
2023-01-11T11:16:50.363Z,10.37
2023-01-11T11:19:25.214Z,11.10
2023-01-11T11:21:58.530Z,10.60
2023-01-11T11:24:47.883Z,10.70
2023-01-11T11:27:34.254Z,10.70
2023-01-11T11:30:07.424Z,10.50
2023-01-11T11:32:43.364Z,11.10
2023-01-11T11:35:34.136Z,10.70
2023-01-11T11:38:07.747Z,11.30
2023-01-11T11:40:42.259Z,11.20
2023-01-11T11:43:22.804Z,11.10
2023-01-11T11:46:03.279Z,11.50
2023-01-11T11:54:27.567Z,11.40
2023-01-11T11:57:01.568Z,11.53
2023-01-11T11:59:35.049Z,11.20
2023-01-11T12:02:09.529Z,11.13
2023-01-11T12:04:50.698Z,10.90
2023-01-11T12:07:25.477Z,10.90
2023-01-11T12:10:06.437Z,10.50
2023-01-11T12:12:40.602Z,10.30
2023-01-11T12:15:21.490Z,10.50
2023-01-11T12:17:55.143Z,10.60
2023-01-11T12:20:30.170Z,10.17
2023-01-11T12:23:19.852Z,10.70
2023-01-11T12:26:17.118Z,10.90
2023-01-11T12:29:00.748Z,10.77
2023-01-11T12:31:35.992Z,10.90
2023-01-11T12:34:31.015Z,10.80
2023-01-11T12:37:28.983Z,10.73
2023-01-11T12:40:23.091Z,11.20
2023-01-11T12:43:18.817Z,11.20
2023-01-11T12:46:25.510Z,11.00
2023-01-11T12:49:12.801Z,10.90
2023-01-11T12:52:13.007Z,10.90
2023-01-11T12:55:06.297Z,11.00
2023-01-11T12:57:45.506Z,10.97
2023-01-11T13:00:23.721Z,10.50
2023-01-11T13:03:14.215Z,10.70
2023-01-11T13:06:08.636Z,10.73
2023-01-11T13:09:06.173Z,10.80
2023-01-11T13:11:59.256Z,10.80
2023-01-11T13:14:58.519Z,10.73
2023-01-11T13:17:49.836Z,10.90
2023-01-11T13:20:59.369Z,10.80
2023-01-11T13:23:37.062Z,10.47
2023-01-11T13:26:28.732Z,10.40
2023-01-11T13:29:09.153Z,10.80
2023-01-11T13:31:43.521Z,10.60
2023-01-11T13:34:21.082Z,10.70
2023-01-11T13:36:56.583Z,10.73
2023-01-11T13:39:31.583Z,10.40
2023-01-11T13:42:12.800Z,10.30
2023-01-11T13:44:57.513Z,9.63
2023-01-11T13:47:41.466Z,9.73
2023-01-11T13:50:31.652Z,10.00
2023-01-11T13:53:10.595Z,9.20
2023-01-11T13:55:45.631Z,9.40
2023-01-11T13:58:30.261Z,9.40
2023-01-11T14:01:05.277Z,9.30
2023-01-11T14:03:43.355Z,9.37
2023-01-11T14:06:36.359Z,9.10
2023-01-11T14:09:26.087Z,8.80
2023-01-11T14:12:20.355Z,9.20
2023-01-11T14:15:07.419Z,9.10
2023-01-11T14:17:51.629Z,9.40
2023-01-11T14:20:29.506Z,9.60
2023-01-11T14:23:11.879Z,9.10
2023-01-11T14:26:05.779Z,8.80
2023-01-11T14:28:53.211Z,8.90
2023-01-11T14:31:31.247Z,8.97
2023-01-11T14:34:09.557Z,8.67
2023-01-11T14:37:04.511Z,8.40
2023-01-11T14:39:51.878Z,8.50
2023-01-11T14:42:53.414Z,8.47
2023-01-11T14:45:45.339Z,8.40
2023-01-11T14:48:25.907Z,7.93
2023-01-11T14:51:33.476Z,8.40
2023-01-11T14:54:29.945Z,8.00
2023-01-11T14:57:03.445Z,8.10
2023-01-11T14:59:41.448Z,6.80
2023-01-11T15:02:19.371Z,8.13
2023-01-11T15:05:00.273Z,8.00
2023-01-11T15:07:38.513Z,7.50
2023-01-11T15:10:28.800Z,7.40
2023-01-11T15:13:02.205Z,7.50
2023-01-11T15:15:53.350Z,7.70
2023-01-11T15:18:28.248Z,7.57
2023-01-11T15:21:08.871Z,7.63
2023-01-11T15:23:43.759Z,7.40
2023-01-11T15:26:18.607Z,7.30
2023-01-11T15:28:59.472Z,7.13
2023-01-11T15:32:00.183Z,6.80
2023-01-11T15:34:38.241Z,6.90
2023-01-11T15:37:46.900Z,7.13
2023-01-11T15:40:30.744Z,7.10
2023-01-11T15:43:34.168Z,7.00
2023-01-11T15:46:42.954Z,6.90
2023-01-11T15:49:33.384Z,6.90
2023-01-11T15:52:41.031Z,6.80
2023-01-11T15:55:31.488Z,7.10
2023-01-11T15:58:15.294Z,7.20
2023-01-11T16:01:10.977Z,6.80
2023-01-11T16:04:13.069Z,7.00
2023-01-11T16:06:56.642Z,7.00
2023-01-11T16:09:55.799Z,7.00
2023-01-11T16:12:36.749Z,5.90
2023-01-11T16:15:43.163Z,6.80
2023-01-11T16:18:23.127Z,6.40
2023-01-11T16:21:14.773Z,6.10
2023-01-11T16:23:48.589Z,6.70
2023-01-11T16:26:23.133Z,6.60
2023-01-11T16:28:58.219Z,6.20
2023-01-11T16:31:32.331Z,6.00
2023-01-11T16:34:07.426Z,5.90
2023-01-11T16:36:43.521Z,5.57
2023-01-11T16:39:19.182Z,6.20
2023-01-11T16:42:07.220Z,5.50
2023-01-11T16:45:00.170Z,5.30
2023-01-11T16:47:33.043Z,5.30
2023-01-11T16:50:27.247Z,5.40
2023-01-11T16:53:02.251Z,5.20
2023-01-11T16:55:40.460Z,5.40
2023-01-11T16:58:25.119Z,5.30
2023-01-11T17:01:06.850Z,5.20
2023-01-11T17:03:44.215Z,5.10
2023-01-11T17:06:22.052Z,5.07
2023-01-11T17:08:56.845Z,5.20
2023-01-11T17:11:41.274Z,5.23
2023-01-11T17:14:32.615Z,5.40
2023-01-11T17:17:14.320Z,5.20
2023-01-11T17:19:52.094Z,5.20
2023-01-11T17:22:35.942Z,5.00
2023-01-11T17:25:14.169Z,4.90
2023-01-11T17:27:51.360Z,5.00
2023-01-11T17:30:26.001Z,5.00
2023-01-11T17:33:01.698Z,4.90
2023-01-11T17:35:42.289Z,4.90
2023-01-11T17:38:17.521Z,5.10
2023-01-11T17:40:50.733Z,4.87
2023-01-11T17:43:45.495Z,4.70
2023-01-11T17:46:27.712Z,4.40
2023-01-11T17:49:02.445Z,4.33
2023-01-11T17:51:37.048Z,4.50
2023-01-11T17:54:11.094Z,4.60
2023-01-11T17:56:44.470Z,4.43
2023-01-11T17:59:19.209Z,4.40
2023-01-11T18:01:59.622Z,4.70
2023-01-11T18:04:33.140Z,4.90
2023-01-11T18:07:19.485Z,4.80
2023-01-11T18:09:53.973Z,4.60
2023-01-11T18:12:29.259Z,5.00
2023-01-11T18:15:06.614Z,5.07
2023-01-11T18:17:45.126Z,4.80
2023-01-11T18:20:23.322Z,5.40
2023-01-11T18:23:05.557Z,4.60
2023-01-11T18:25:39.341Z,4.60
2023-01-11T18:28:23.033Z,4.60
2023-01-11T18:30:58.766Z,4.50
2023-01-11T18:33:33.572Z,4.50
2023-01-11T18:36:07.553Z,4.30
2023-01-11T18:38:40.845Z,4.30
2023-01-11T18:41:32.832Z,4.30
2023-01-11T18:44:06.622Z,4.40
2023-01-11T18:46:39.588Z,4.50
2023-01-11T18:49:12.557Z,4.30
2023-01-11T18:51:46.526Z,4.20
2023-01-11T18:54:22.272Z,4.10
2023-01-11T18:56:55.259Z,4.20
2023-01-11T18:59:28.153Z,4.10
2023-01-11T19:02:16.003Z,4.00
2023-01-11T19:04:37.567Z,4.20
2023-01-11T19:07:10.248Z,4.10
2023-01-11T19:09:43.598Z,3.70
2023-01-11T19:12:16.493Z,3.60
2023-01-11T19:14:49.598Z,3.60
2023-01-11T19:17:22.799Z,3.70
2023-01-11T19:19:55.621Z,3.80
2023-01-11T19:22:28.447Z,3.70
2023-01-11T19:25:01.446Z,3.60
2023-01-11T19:27:34.769Z,3.40
2023-01-11T19:30:09.061Z,3.40
2023-01-11T19:32:41.896Z,3.60
2023-01-11T19:35:15.092Z,3.80
2023-01-11T19:37:48.537Z,3.50
2023-01-11T19:40:22.674Z,2.70
2023-01-11T19:42:55.744Z,3.40
2023-01-11T19:45:28.992Z,3.50
2023-01-11T19:48:02.594Z,3.50
2023-01-11T19:50:35.371Z,3.50
2023-01-11T19:53:08.277Z,3.50
2023-01-11T19:55:41.440Z,3.70
2023-01-11T19:58:14.325Z,3.50
2023-01-11T20:00:47.367Z,3.40
2023-01-11T20:03:20.398Z,3.60
2023-01-11T20:05:55.903Z,3.60
2023-01-11T20:08:28.964Z,3.70
2023-01-11T20:11:03.061Z,3.97
2023-01-11T20:13:35.928Z,3.70
2023-01-11T20:16:13.505Z,3.70
2023-01-11T20:18:46.494Z,3.90
2023-01-11T20:21:21.727Z,3.80
2023-01-11T20:23:54.780Z,4.10
2023-01-11T20:26:28.867Z,4.00
2023-01-11T20:29:02.151Z,4.00
2023-01-11T20:31:36.808Z,4.10
2023-01-11T20:34:14.374Z,3.90
2023-01-11T20:36:47.952Z,4.20
2023-01-11T20:39:21.379Z,4.10
2023-01-11T20:41:54.374Z,3.90
2023-01-11T20:44:29.981Z,4.10
2023-01-11T20:47:03.910Z,4.70
2023-01-11T20:49:36.990Z,5.50
2023-01-11T20:52:09.989Z,5.50
2023-01-11T20:54:57.111Z,5.30
2023-01-11T20:57:31.216Z,4.70
2023-01-11T21:00:04.071Z,5.00
2023-01-11T21:02:37.149Z,5.00
2023-01-11T21:05:11.024Z,4.60
2023-01-11T21:07:44.074Z,4.50
2023-01-11T21:10:16.981Z,4.70
2023-01-11T21:12:53.199Z,4.80
2023-01-11T21:15:26.127Z,5.57
2023-01-11T21:17:59.282Z,5.23
2023-01-11T21:20:32.355Z,5.33
2023-01-11T21:23:05.305Z,5.20
2023-01-11T21:25:38.512Z,4.30
2023-01-11T21:28:11.528Z,5.07
2023-01-11T21:30:44.360Z,5.07
2023-01-11T21:33:17.811Z,4.70
2023-01-11T21:35:50.696Z,5.10
2023-01-11T21:38:23.261Z,4.70
2023-01-11T21:40:56.083Z,4.40
2023-01-11T21:43:28.879Z,4.70
2023-01-11T21:46:01.760Z,4.70
2023-01-11T21:48:36.789Z,4.40
2023-01-11T21:51:14.761Z,4.90
2023-01-11T21:53:47.554Z,4.90
2023-01-11T21:56:20.456Z,4.60
2023-01-11T21:58:53.531Z,4.80
2023-01-11T22:01:26.396Z,4.93
2023-01-11T22:03:59.478Z,4.70
2023-01-11T22:06:32.379Z,4.70
2023-01-11T22:09:05.833Z,4.40
2023-01-11T22:11:38.799Z,4.60
2023-01-11T22:14:11.964Z,4.83
2023-01-11T22:16:45.403Z,4.70
2023-01-11T22:19:18.464Z,4.60
2023-01-11T22:21:51.961Z,4.90
2023-01-11T22:24:24.710Z,5.10
2023-01-11T22:26:57.685Z,4.50
2023-01-11T22:29:30.495Z,4.80
2023-01-11T22:32:04.657Z,5.00
2023-01-11T22:34:37.906Z,5.00
2023-01-11T22:37:13.244Z,5.27
2023-01-11T22:39:46.241Z,5.00
2023-01-11T22:42:19.070Z,5.10
2023-01-11T22:44:51.819Z,5.10
2023-01-11T22:47:24.619Z,5.23
2023-01-11T22:49:58.681Z,5.40
2023-01-11T22:52:31.710Z,5.57
2023-01-11T22:55:04.672Z,6.40
2023-01-11T22:57:37.630Z,6.00
2023-01-11T23:00:11.377Z,5.90
2023-01-11T23:02:48.473Z,6.00
2023-01-11T23:05:21.241Z,6.00
2023-01-11T23:07:54.154Z,6.80
2023-01-11T23:10:27.097Z,6.70
2023-01-11T23:13:17.625Z,6.40
2023-01-11T23:15:51.743Z,5.80
2023-01-11T23:18:24.795Z,6.10
2023-01-11T23:20:57.578Z,6.20
2023-01-11T23:23:31.398Z,6.20
2023-01-11T23:26:04.162Z,6.20
2023-01-11T23:28:37.640Z,6.53
2023-01-11T23:31:21.090Z,6.60
2023-01-11T23:33:55.634Z,6.40
2023-01-11T23:36:30.307Z,7.47
2023-01-11T23:39:03.311Z,5.93
2023-01-11T23:41:54.143Z,6.60
2023-01-11T23:44:27.292Z,6.40
2023-01-11T23:47:17.628Z,6.30
2023-01-11T23:49:51.635Z,6.50
2023-01-11T23:52:26.124Z,6.50
2023-01-11T23:54:59.130Z,5.40
2023-01-11T23:57:32.305Z,5.80
